createdAt,value
2018-04-08T00:00:40.756Z,8.30
2018-04-08T00:05:42.073Z,9.00
2018-04-08T00:10:43.364Z,9.40
2018-04-08T00:15:44.650Z,9.83
2018-04-08T00:20:45.955Z,9.20
2018-04-08T00:25:47.323Z,9.70
2018-04-08T00:30:48.664Z,9.80
2018-04-08T00:35:49.983Z,10.40
2018-04-08T00:40:51.305Z,10.07
2018-04-08T00:45:52.624Z,10.07
2018-04-08T00:50:53.984Z,10.70
2018-04-08T00:55:55.310Z,10.60
2018-04-08T01:00:56.653Z,10.30
2018-04-08T01:05:57.992Z,10.60
2018-04-08T01:10:59.309Z,9.17
2018-04-08T01:16:00.644Z,10.00
2018-04-08T01:21:02.721Z,9.80
2018-04-08T01:26:04.060Z,11.03
2018-04-08T01:31:05.380Z,12.27
2018-04-08T01:36:06.708Z,9.90
2018-04-08T01:41:08.011Z,9.33
2018-04-08T01:46:17.093Z,12.10
2018-04-08T01:51:19.134Z,12.20
2018-04-08T01:56:20.467Z,11.60
2018-04-08T02:01:21.869Z,10.77
2018-04-08T02:06:23.947Z,12.10
2018-04-08T02:11:25.295Z,11.03
2018-04-08T02:16:26.604Z,12.27
2018-04-08T02:21:27.911Z,12.10
2018-04-08T02:26:29.219Z,11.87
2018-04-08T02:31:30.567Z,12.17
2018-04-08T02:36:31.919Z,12.80
2018-04-08T02:41:33.968Z,11.47
2018-04-08T02:51:42.972Z,12.00
2018-04-08T02:56:44.283Z,11.10
2018-04-08T03:01:45.627Z,11.73
2018-04-08T03:06:47.679Z,12.20
2018-04-08T03:11:48.991Z,12.17
2018-04-08T03:16:50.335Z,11.80
2018-04-08T03:21:51.690Z,13.10
2018-04-08T03:26:53.004Z,11.27
2018-04-08T03:31:54.346Z,10.83
2018-04-08T03:36:55.721Z,11.97
2018-04-08T03:41:57.032Z,11.27
2018-04-08T03:46:58.542Z,10.70
2018-04-08T03:51:59.863Z,12.00
2018-04-08T03:57:01.178Z,11.00
2018-04-08T04:02:02.543Z,11.23
2018-04-08T04:07:03.848Z,11.50
2018-04-08T04:12:05.182Z,10.57
2018-04-08T04:17:06.503Z,10.33
2018-04-08T04:22:26.327Z,9.67
2018-04-08T04:27:27.647Z,10.40
2018-04-08T04:32:28.999Z,12.13
2018-04-08T04:37:31.103Z,12.17
2018-04-08T04:42:33.141Z,12.27
2018-04-08T04:47:34.743Z,11.53
2018-04-08T04:52:36.079Z,11.53
2018-04-08T04:57:37.401Z,9.77
2018-04-08T05:02:39.495Z,13.23
2018-04-08T05:07:41.532Z,11.63
2018-04-08T05:12:43.036Z,11.40
2018-04-08T05:17:44.404Z,11.00
2018-04-08T05:22:45.836Z,11.60
2018-04-08T05:27:47.174Z,11.40
2018-04-08T05:32:48.548Z,12.17
2018-04-08T05:37:49.867Z,13.03
2018-04-08T05:42:51.230Z,13.50
2018-04-08T05:47:53.279Z,12.20
2018-04-08T05:52:54.619Z,12.33
2018-04-08T05:57:56.702Z,12.47
2018-04-08T06:02:58.012Z,11.73
2018-04-08T06:08:00.075Z,12.47
2018-04-08T06:13:01.383Z,10.77
2018-04-08T06:18:02.755Z,12.50
2018-04-08T06:23:04.115Z,12.90
2018-04-08T06:28:05.443Z,12.97
2018-04-08T06:33:06.748Z,12.73
2018-04-08T06:38:08.091Z,12.10
2018-04-08T06:43:09.515Z,12.73
2018-04-08T06:48:10.854Z,12.67
2018-04-08T06:53:12.956Z,11.33
2018-04-08T06:58:15.011Z,15.20
2018-04-08T07:03:16.339Z,15.57
2018-04-08T07:08:17.640Z,8.50
2018-04-08T07:13:19.675Z,8.67
2018-04-08T07:18:21.076Z,8.87
2018-04-08T07:23:22.445Z,8.80
2018-04-08T07:28:23.748Z,8.90
2018-04-08T07:33:25.063Z,8.97
2018-04-08T07:38:26.356Z,9.07
2018-04-08T07:43:27.685Z,8.90
2018-04-08T07:48:29.753Z,9.03
2018-04-08T07:53:31.086Z,7.67
2018-04-08T07:58:32.383Z,8.90
2018-04-08T08:03:33.699Z,9.00
2018-04-08T08:08:35.004Z,8.57
2018-04-08T08:13:36.319Z,8.83
2018-04-08T08:18:38.382Z,8.60
2018-04-08T08:23:39.705Z,8.50
2018-04-08T08:28:41.014Z,9.27
2018-04-08T08:33:43.069Z,8.90
2018-04-08T08:38:44.363Z,7.80
2018-04-08T08:43:45.660Z,8.13
2018-04-08T08:48:46.979Z,7.37
2018-04-08T08:53:49.007Z,7.07
2018-04-08T08:58:50.332Z,7.60
2018-04-08T09:03:51.655Z,8.20
2018-04-08T09:08:52.998Z,9.07
2018-04-08T09:13:54.296Z,8.40
2018-04-08T09:19:07.433Z,8.97
2018-04-08T09:24:12.664Z,7.80
2018-04-08T09:29:13.953Z,9.50
2018-04-08T09:34:15.263Z,8.50
2018-04-08T09:39:17.322Z,9.07
2018-04-08T09:44:18.647Z,8.37
2018-04-08T09:49:19.951Z,8.70
2018-04-08T09:54:22.003Z,8.60
2018-04-08T09:59:23.409Z,9.30
2018-04-08T10:04:24.726Z,8.20
2018-04-08T10:09:26.147Z,7.90
2018-04-08T10:14:27.459Z,7.53
2018-04-08T10:19:28.792Z,7.43
2018-04-08T10:24:30.124Z,7.60
2018-04-08T10:29:31.443Z,8.90
2018-04-08T10:34:32.767Z,8.53
2018-04-08T10:39:34.094Z,9.57
2018-04-08T10:44:35.436Z,7.53
2018-04-08T10:49:36.759Z,8.23
2018-04-08T10:54:38.820Z,8.27
2018-04-08T10:59:40.158Z,7.37
2018-04-08T11:04:41.467Z,7.53
2018-04-08T11:09:42.800Z,7.77
2018-04-08T11:14:44.124Z,10.33
2018-04-08T11:19:45.431Z,10.20
2018-04-08T11:24:46.852Z,9.53
2018-04-08T11:29:48.174Z,8.90
2018-04-08T11:34:50.243Z,8.20
2018-04-08T11:39:51.591Z,10.03
2018-04-08T11:44:52.905Z,8.60
2018-04-08T11:49:54.231Z,8.60
2018-04-08T11:54:55.535Z,9.03
2018-04-08T11:59:57.701Z,9.13
2018-04-08T12:04:59.018Z,9.13
2018-04-08T12:10:00.339Z,8.70
2018-04-08T12:15:01.655Z,8.70
2018-04-08T12:20:03.004Z,8.63
2018-04-08T12:25:05.115Z,10.70
2018-04-08T12:30:07.418Z,10.10
2018-04-08T12:35:09.692Z,10.63
2018-04-08T12:40:11.244Z,12.10
2018-04-08T12:45:13.503Z,11.70
2018-04-08T12:50:14.839Z,11.00
2018-04-08T12:55:16.899Z,9.73
2018-04-08T13:00:18.369Z,9.50
2018-04-08T13:05:19.696Z,10.17
2018-04-08T13:10:21.030Z,9.83
2018-04-08T13:15:22.411Z,10.80
2018-04-08T13:20:24.496Z,12.70
2018-04-08T13:25:25.892Z,11.97
2018-04-08T13:30:27.961Z,18.10
2018-04-08T13:35:29.288Z,10.97
2018-04-08T13:40:31.366Z,11.63
2018-04-08T13:45:32.688Z,23.03
2018-04-08T13:50:34.749Z,11.73
2018-04-08T13:55:36.087Z,14.27
2018-04-08T14:00:38.219Z,11.20
2018-04-08T14:05:39.554Z,15.90
2018-04-08T14:10:40.889Z,11.30
2018-04-08T14:15:42.187Z,15.87
2018-04-08T14:20:43.512Z,13.97
2018-04-08T14:25:44.823Z,13.50
2018-04-08T14:30:46.186Z,15.27
2018-04-08T14:35:47.515Z,12.00
2018-04-08T14:40:49.587Z,13.87
2018-04-08T14:45:50.921Z,10.57
2018-04-08T14:50:53.011Z,13.50
2018-04-08T14:55:54.347Z,20.80
2018-04-08T15:00:55.718Z,21.97
2018-04-08T15:05:57.054Z,20.93
2018-04-08T15:10:58.380Z,17.27
2018-04-08T15:16:00.448Z,12.60
2018-04-08T15:21:01.777Z,11.10
2018-04-08T15:26:03.875Z,11.30
2018-04-08T15:31:05.202Z,12.83
2018-04-08T15:36:06.534Z,12.30
2018-04-08T15:41:07.926Z,15.17
2018-04-08T15:46:09.268Z,13.83
2018-04-08T15:51:10.632Z,13.80
2018-04-08T15:56:11.964Z,13.67
2018-04-08T16:01:13.291Z,13.63
2018-04-08T16:06:14.590Z,13.60
2018-04-08T16:11:16.315Z,14.37
2018-04-08T16:16:18.507Z,14.60
2018-04-08T16:21:20.571Z,13.30
2018-04-08T16:26:21.865Z,15.00
2018-04-08T16:31:23.180Z,16.10
2018-04-08T16:36:24.499Z,13.90
2018-04-08T16:41:26.552Z,13.00
2018-04-08T16:46:27.911Z,13.67
2018-04-08T16:51:29.937Z,14.60
2018-04-08T16:56:31.300Z,14.60
2018-04-08T17:01:32.628Z,16.57
2018-04-08T17:06:33.943Z,15.47
2018-04-08T17:11:36.405Z,16.57
2018-04-08T17:16:37.786Z,17.53
2018-04-08T17:21:39.110Z,18.97
2018-04-08T17:26:40.432Z,18.60
2018-04-08T17:31:41.751Z,19.23
2018-04-08T17:36:43.047Z,19.93
2018-04-08T17:41:44.343Z,22.33
2018-04-08T17:46:46.513Z,22.73
2018-04-08T17:51:47.843Z,22.33
2018-04-08T17:56:49.172Z,23.57
2018-04-08T18:01:50.632Z,22.87
2018-04-08T18:06:51.923Z,23.40
2018-04-08T18:11:53.368Z,24.67
2018-04-08T18:16:54.703Z,23.27
2018-04-08T18:21:56.004Z,23.70
2018-04-08T18:26:57.390Z,25.30
2018-04-08T18:31:58.724Z,24.50
2018-04-08T18:37:00.015Z,25.40
2018-04-08T18:42:02.072Z,25.10
2018-04-08T18:47:03.838Z,25.20
2018-04-08T18:52:06.631Z,24.60
2018-04-08T18:57:07.982Z,23.90
2018-04-08T19:02:09.435Z,25.20
2018-04-08T19:07:11.630Z,23.67
2018-04-08T19:12:13.047Z,23.27
2018-04-08T19:17:21.246Z,25.00
2018-04-08T19:22:22.611Z,22.93
2018-04-08T19:27:29.883Z,23.87
2018-04-08T19:32:31.302Z,23.67
2018-04-08T19:37:33.355Z,23.80
2018-04-08T19:42:34.679Z,23.53
2018-04-08T19:47:35.990Z,22.80
2018-04-08T19:52:38.036Z,22.63
2018-04-08T19:57:39.322Z,23.73
2018-04-08T20:02:40.627Z,22.83
2018-04-08T20:07:41.919Z,24.27
2018-04-08T20:12:43.224Z,22.90
2018-04-08T20:17:44.519Z,22.50
2018-04-08T20:22:45.831Z,23.13
2018-04-08T20:27:47.119Z,23.30
2018-04-08T20:32:48.430Z,24.40
2018-04-08T20:37:49.731Z,22.63
2018-04-08T20:42:51.071Z,22.83
2018-04-08T20:47:53.135Z,25.30
2018-04-08T20:52:54.456Z,24.57
2018-04-08T20:57:55.763Z,24.10
2018-04-08T21:02:57.810Z,25.90
2018-04-08T21:07:59.135Z,26.33
2018-04-08T21:13:00.479Z,26.40
2018-04-08T21:18:02.536Z,25.40
2018-04-08T21:23:04.610Z,25.90
2018-04-08T21:28:05.915Z,25.73
2018-04-08T21:33:07.261Z,26.10
2018-04-08T21:38:08.583Z,26.93
2018-04-08T21:43:09.919Z,27.20
2018-04-08T21:48:11.984Z,25.83
2018-04-08T21:53:13.332Z,25.97
2018-04-08T21:58:14.662Z,25.77
2018-04-08T22:03:15.974Z,26.53
2018-04-08T22:08:17.334Z,27.70
2018-04-08T22:13:18.657Z,27.40
2018-04-08T22:18:19.983Z,27.53
2018-04-08T22:23:21.317Z,27.93
2018-04-08T22:28:22.629Z,26.70
2018-04-08T22:33:23.951Z,27.93
2018-04-08T22:38:25.252Z,26.67
2018-04-08T22:43:26.567Z,27.13
2018-04-08T22:48:27.863Z,28.10
2018-04-08T22:53:29.215Z,27.07
2018-04-08T22:58:30.586Z,28.30
2018-04-08T23:03:32.635Z,27.13
2018-04-08T23:08:33.944Z,27.10
2018-04-08T23:13:35.320Z,29.20
2018-04-08T23:18:36.623Z,28.03
2018-04-08T23:23:37.964Z,27.77
2018-04-08T23:28:39.267Z,28.70
2018-04-08T23:33:40.568Z,27.80
2018-04-08T23:38:41.878Z,27.97
2018-04-08T23:43:43.203Z,27.20
2018-04-08T23:48:45.255Z,25.60
2018-04-08T23:53:46.568Z,26.33
2018-04-08T23:58:47.915Z,28.57
